sensor_id;sensor_type;location;lat;lon;timestamp;temperature;humidity
7598;DHT22;3840;59.32098800;18.06423600;2023-06-22T00:00:58;19.00;99.90
7598;DHT22;3840;59.32098800;18.06423600;2023-06-22T00:03:24;19.00;99.90
7598;DHT22;3840;59.32098800;18.06423600;2023-06-22T00:05:51;19.00;99.90
7598;DHT22;3840;59.32098800;18.06423600;2023-06-22T00:08:17;19.00;99.90
7598;DHT22;3840;59.32098800;18.06423600;2023-06-22T00:10:43;19.00;99.90
7598;DHT22;3840;59.32098800;18.06423600;2023-06-22T00:13:09;19.00;99.90
7598;DHT22;3840;59.32098800;18.06423600;2023-06-22T00:15:36;19.00;99.90
7598;DHT22;3840;59.32098800;18.06423600;2023-06-22T00:18:03;19.00;99.90
7598;DHT22;3840;59.32098800;18.06423600;2023-06-22T00:20:29;19.00;99.90
7598;DHT22;3840;59.32098800;18.06423600;2023-06-22T00:22:56;19.00;99.90
7598;DHT22;3840;59.32098800;18.06423600;2023-06-22T00:25:23;19.00;99.90
7598;DHT22;3840;59.32098800;18.06423600;2023-06-22T00:27:49;19.00;99.90
7598;DHT22;3840;59.32098800;18.06423600;2023-06-22T00:30:18;19.10;99.90
7598;DHT22;3840;59.32098800;18.06423600;2023-06-22T00:32:45;19.10;99.90
7598;DHT22;3840;59.32098800;18.06423600;2023-06-22T00:35:14;19.00;99.90
7598;DHT22;3840;59.32098800;18.06423600;2023-06-22T00:37:40;19.00;99.90
7598;DHT22;3840;59.32098800;18.06423600;2023-06-22T00:40:11;19.00;99.90
7598;DHT22;3840;59.32098800;18.06423600;2023-06-22T00:42:38;19.00;99.90
7598;DHT22;3840;59.32098800;18.06423600;2023-06-22T00:45:05;19.00;99.90
7598;DHT22;3840;59.32098800;18.06423600;2023-06-22T00:47:32;19.00;99.90
7598;DHT22;3840;59.32098800;18.06423600;2023-06-22T00:49:59;18.90;99.90
7598;DHT22;3840;59.32098800;18.06423600;2023-06-22T00:52:25;19.00;99.90
7598;DHT22;3840;59.32098800;18.06423600;2023-06-22T00:54:56;19.00;99.90
7598;DHT22;3840;59.32098800;18.06423600;2023-06-22T00:57:24;19.00;99.90
7598;DHT22;3840;59.32098800;18.06423600;2023-06-22T00:59:53;19.00;99.90
7598;DHT22;3840;59.32098800;18.06423600;2023-06-22T01:02:19;19.00;99.90
7598;DHT22;3840;59.32098800;18.06423600;2023-06-22T01:04:45;19.00;99.90
7598;DHT22;3840;59.32098800;18.06423600;2023-06-22T01:10:10;19.10;99.90
7598;DHT22;3840;59.32098800;18.06423600;2023-06-22T01:12:45;19.10;99.90
7598;DHT22;3840;59.32098800;18.06423600;2023-06-22T01:15:28;19.10;99.90
7598;DHT22;3840;59.32098800;18.06423600;2023-06-22T01:17:56;19.00;99.90
7598;DHT22;3840;59.32098800;18.06423600;2023-06-22T01:20:25;19.10;99.90
7598;DHT22;3840;59.32098800;18.06423600;2023-06-22T01:26:05;19.10;99.90
7598;DHT22;3840;59.32098800;18.06423600;2023-06-22T01:31:22;19.10;99.90
7598;DHT22;3840;59.32098800;18.06423600;2023-06-22T01:33:55;19.10;99.90
7598;DHT22;3840;59.32098800;18.06423600;2023-06-22T01:36:22;19.10;99.90
7598;DHT22;3840;59.32098800;18.06423600;2023-06-22T01:38:49;19.10;99.90
7598;DHT22;3840;59.32098800;18.06423600;2023-06-22T01:41:20;19.10;99.90
7598;DHT22;3840;59.32098800;18.06423600;2023-06-22T01:43:47;19.20;99.90
7598;DHT22;3840;59.32098800;18.06423600;2023-06-22T01:46:14;19.20;99.90
7598;DHT22;3840;59.32098800;18.06423600;2023-06-22T01:48:40;19.20;99.90
7598;DHT22;3840;59.32098800;18.06423600;2023-06-22T01:51:06;19.20;99.90
7598;DHT22;3840;59.32098800;18.06423600;2023-06-22T01:53:32;19.20;99.90
7598;DHT22;3840;59.32098800;18.06423600;2023-06-22T01:55:57;19.20;99.90
7598;DHT22;3840;59.32098800;18.06423600;2023-06-22T01:58:26;19.30;99.90
7598;DHT22;3840;59.32098800;18.06423600;2023-06-22T02:01:03;19.20;99.90
7598;DHT22;3840;59.32098800;18.06423600;2023-06-22T02:03:35;19.20;99.90
7598;DHT22;3840;59.32098800;18.06423600;2023-06-22T02:09:09;19.20;99.90
7598;DHT22;3840;59.32098800;18.06423600;2023-06-22T02:11:37;19.20;99.90
7598;DHT22;3840;59.32098800;18.06423600;2023-06-22T02:14:05;19.10;99.90
7598;DHT22;3840;59.32098800;18.06423600;2023-06-22T02:16:32;19.20;99.90
7598;DHT22;3840;59.32098800;18.06423600;2023-06-22T02:19:01;19.10;99.90
7598;DHT22;3840;59.32098800;18.06423600;2023-06-22T02:21:29;19.20;99.90
7598;DHT22;3840;59.32098800;18.06423600;2023-06-22T02:23:55;19.20;99.90
7598;DHT22;3840;59.32098800;18.06423600;2023-06-22T02:26:21;19.10;99.90
7598;DHT22;3840;59.32098800;18.06423600;2023-06-22T02:28:46;19.20;99.90
7598;DHT22;3840;59.32098800;18.06423600;2023-06-22T02:31:12;19.10;99.90
7598;DHT22;3840;59.32098800;18.06423600;2023-06-22T02:33:38;19.10;99.90
7598;DHT22;3840;59.32098800;18.06423600;2023-06-22T02:36:04;19.10;99.90
7598;DHT22;3840;59.32098800;18.06423600;2023-06-22T02:38:31;19.10;99.90
7598;DHT22;3840;59.32098800;18.06423600;2023-06-22T02:40:58;19.10;99.90
7598;DHT22;3840;59.32098800;18.06423600;2023-06-22T02:43:25;19.10;99.90
7598;DHT22;3840;59.32098800;18.06423600;2023-06-22T02:45:50;19.10;99.90
7598;DHT22;3840;59.32098800;18.06423600;2023-06-22T02:48:16;19.10;99.90
7598;DHT22;3840;59.32098800;18.06423600;2023-06-22T02:50:42;19.10;99.90
7598;DHT22;3840;59.32098800;18.06423600;2023-06-22T02:53:08;19.10;99.90
7598;DHT22;3840;59.32098800;18.06423600;2023-06-22T02:55:34;19.20;99.90
7598;DHT22;3840;59.32098800;18.06423600;2023-06-22T02:58:00;19.20;99.90
7598;DHT22;3840;59.32098800;18.06423600;2023-06-22T03:00:31;19.10;99.90
7598;DHT22;3840;59.32098800;18.06423600;2023-06-22T03:02:58;19.10;99.90
7598;DHT22;3840;59.32098800;18.06423600;2023-06-22T03:05:24;19.10;99.90
7598;DHT22;3840;59.32098800;18.06423600;2023-06-22T03:07:49;19.10;99.90
7598;DHT22;3840;59.32098800;18.06423600;2023-06-22T03:10:15;19.10;99.90
7598;DHT22;3840;59.32098800;18.06423600;2023-06-22T03:12:42;19.20;99.90
7598;DHT22;3840;59.32098800;18.06423600;2023-06-22T03:15:10;19.20;99.90
7598;DHT22;3840;59.32098800;18.06423600;2023-06-22T03:17:37;19.20;99.90
7598;DHT22;3840;59.32098800;18.06423600;2023-06-22T03:20:05;19.10;99.90
7598;DHT22;3840;59.32098800;18.06423600;2023-06-22T03:22:43;19.20;99.90
7598;DHT22;3840;59.32098800;18.06423600;2023-06-22T03:25:10;19.20;99.90
7598;DHT22;3840;59.32098800;18.06423600;2023-06-22T03:27:39;19.20;99.90
7598;DHT22;3840;59.32098800;18.06423600;2023-06-22T03:30:09;19.30;99.90
7598;DHT22;3840;59.32098800;18.06423600;2023-06-22T03:32:35;19.30;99.90
7598;DHT22;3840;59.32098800;18.06423600;2023-06-22T03:35:01;19.40;99.90
7598;DHT22;3840;59.32098800;18.06423600;2023-06-22T03:37:28;19.50;99.90
7598;DHT22;3840;59.32098800;18.06423600;2023-06-22T03:39:53;19.60;99.90
7598;DHT22;3840;59.32098800;18.06423600;2023-06-22T03:42:19;19.60;99.90
7598;DHT22;3840;59.32098800;18.06423600;2023-06-22T03:44:45;19.70;99.90
7598;DHT22;3840;59.32098800;18.06423600;2023-06-22T03:47:10;19.60;99.90
7598;DHT22;3840;59.32098800;18.06423600;2023-06-22T03:49:36;19.60;99.90
7598;DHT22;3840;59.32098800;18.06423600;2023-06-22T03:52:02;19.70;99.90
7598;DHT22;3840;59.32098800;18.06423600;2023-06-22T03:54:29;19.70;99.90
7598;DHT22;3840;59.32098800;18.06423600;2023-06-22T03:56:57;19.70;99.90
7598;DHT22;3840;59.32098800;18.06423600;2023-06-22T03:59:22;19.60;99.90
7598;DHT22;3840;59.32098800;18.06423600;2023-06-22T04:01:48;19.60;99.90
7598;DHT22;3840;59.32098800;18.06423600;2023-06-22T04:04:14;19.40;99.90
7598;DHT22;3840;59.32098800;18.06423600;2023-06-22T04:06:39;19.40;99.90
7598;DHT22;3840;59.32098800;18.06423600;2023-06-22T04:09:06;19.50;99.90
7598;DHT22;3840;59.32098800;18.06423600;2023-06-22T04:11:32;19.50;99.90
7598;DHT22;3840;59.32098800;18.06423600;2023-06-22T04:13:57;19.60;99.90
7598;DHT22;3840;59.32098800;18.06423600;2023-06-22T04:16:23;19.60;99.90
7598;DHT22;3840;59.32098800;18.06423600;2023-06-22T04:18:49;19.70;99.90
7598;DHT22;3840;59.32098800;18.06423600;2023-06-22T04:21:14;20.00;99.90
7598;DHT22;3840;59.32098800;18.06423600;2023-06-22T04:23:40;20.00;99.90
7598;DHT22;3840;59.32098800;18.06423600;2023-06-22T04:26:06;20.50;99.90
7598;DHT22;3840;59.32098800;18.06423600;2023-06-22T04:28:32;21.40;99.90
7598;DHT22;3840;59.32098800;18.06423600;2023-06-22T04:31:04;22.10;99.90
7598;DHT22;3840;59.32098800;18.06423600;2023-06-22T04:33:30;22.90;99.90
7598;DHT22;3840;59.32098800;18.06423600;2023-06-22T04:35:56;23.50;99.90
7598;DHT22;3840;59.32098800;18.06423600;2023-06-22T04:38:31;23.70;99.90
7598;DHT22;3840;59.32098800;18.06423600;2023-06-22T04:40:59;24.00;99.90
7598;DHT22;3840;59.32098800;18.06423600;2023-06-22T04:43:28;23.10;99.90
7598;DHT22;3840;59.32098800;18.06423600;2023-06-22T04:45:57;22.60;99.90
7598;DHT22;3840;59.32098800;18.06423600;2023-06-22T04:48:32;22.10;99.90
7598;DHT22;3840;59.32098800;18.06423600;2023-06-22T04:50:59;21.90;99.90
7598;DHT22;3840;59.32098800;18.06423600;2023-06-22T04:53:32;21.90;99.90
7598;DHT22;3840;59.32098800;18.06423600;2023-06-22T04:55:58;22.20;99.90
7598;DHT22;3840;59.32098800;18.06423600;2023-06-22T04:58:24;22.60;99.90
7598;DHT22;3840;59.32098800;18.06423600;2023-06-22T05:00:52;22.40;99.90
7598;DHT22;3840;59.32098800;18.06423600;2023-06-22T05:03:18;22.60;99.90
7598;DHT22;3840;59.32098800;18.06423600;2023-06-22T05:05:51;22.50;99.90
7598;DHT22;3840;59.32098800;18.06423600;2023-06-22T05:08:17;22.30;99.90
7598;DHT22;3840;59.32098800;18.06423600;2023-06-22T05:10:43;21.70;99.90
7598;DHT22;3840;59.32098800;18.06423600;2023-06-22T05:13:09;21.50;99.90
7598;DHT22;3840;59.32098800;18.06423600;2023-06-22T05:15:35;21.20;99.90
7598;DHT22;3840;59.32098800;18.06423600;2023-06-22T05:18:06;21.20;99.90
7598;DHT22;3840;59.32098800;18.06423600;2023-06-22T05:20:31;21.20;99.90
7598;DHT22;3840;59.32098800;18.06423600;2023-06-22T05:22:58;21.20;99.90
7598;DHT22;3840;59.32098800;18.06423600;2023-06-22T05:25:24;21.20;99.90
7598;DHT22;3840;59.32098800;18.06423600;2023-06-22T05:27:50;21.40;99.90
7598;DHT22;3840;59.32098800;18.06423600;2023-06-22T05:30:17;21.60;99.90
7598;DHT22;3840;59.32098800;18.06423600;2023-06-22T05:32:44;21.60;99.90
7598;DHT22;3840;59.32098800;18.06423600;2023-06-22T05:35:10;21.40;99.90
7598;DHT22;3840;59.32098800;18.06423600;2023-06-22T05:37:35;21.20;99.90
7598;DHT22;3840;59.32098800;18.06423600;2023-06-22T05:40:01;21.00;99.90
7598;DHT22;3840;59.32098800;18.06423600;2023-06-22T05:42:27;20.80;99.90
7598;DHT22;3840;59.32098800;18.06423600;2023-06-22T05:44:53;20.60;99.90
7598;DHT22;3840;59.32098800;18.06423600;2023-06-22T05:47:19;20.50;99.90
7598;DHT22;3840;59.32098800;18.06423600;2023-06-22T05:49:45;20.50;99.90
7598;DHT22;3840;59.32098800;18.06423600;2023-06-22T05:52:11;20.50;99.90
7598;DHT22;3840;59.32098800;18.06423600;2023-06-22T05:54:37;20.40;99.90
7598;DHT22;3840;59.32098800;18.06423600;2023-06-22T05:57:04;20.30;99.90
7598;DHT22;3840;59.32098800;18.06423600;2023-06-22T05:59:31;20.20;99.90
7598;DHT22;3840;59.32098800;18.06423600;2023-06-22T06:01:57;20.20;99.90
7598;DHT22;3840;59.32098800;18.06423600;2023-06-22T06:04:22;20.20;99.90
7598;DHT22;3840;59.32098800;18.06423600;2023-06-22T06:06:48;20.10;99.90
7598;DHT22;3840;59.32098800;18.06423600;2023-06-22T06:09:14;20.00;99.90
7598;DHT22;3840;59.32098800;18.06423600;2023-06-22T06:11:40;20.00;99.90
7598;DHT22;3840;59.32098800;18.06423600;2023-06-22T06:14:06;20.00;99.90
7598;DHT22;3840;59.32098800;18.06423600;2023-06-22T06:16:32;19.90;99.90
7598;DHT22;3840;59.32098800;18.06423600;2023-06-22T06:18:57;19.90;99.90
7598;DHT22;3840;59.32098800;18.06423600;2023-06-22T06:21:24;20.00;99.90
7598;DHT22;3840;59.32098800;18.06423600;2023-06-22T06:23:49;19.90;99.90
7598;DHT22;3840;59.32098800;18.06423600;2023-06-22T06:26:15;20.00;99.90
7598;DHT22;3840;59.32098800;18.06423600;2023-06-22T06:28:43;20.00;99.90
7598;DHT22;3840;59.32098800;18.06423600;2023-06-22T06:31:09;19.90;99.90
7598;DHT22;3840;59.32098800;18.06423600;2023-06-22T06:33:36;19.90;99.90
7598;DHT22;3840;59.32098800;18.06423600;2023-06-22T06:36:02;19.90;99.90
7598;DHT22;3840;59.32098800;18.06423600;2023-06-22T06:38:30;19.80;99.90
7598;DHT22;3840;59.32098800;18.06423600;2023-06-22T06:40:56;19.90;99.90
7598;DHT22;3840;59.32098800;18.06423600;2023-06-22T06:43:22;20.00;99.90
7598;DHT22;3840;59.32098800;18.06423600;2023-06-22T06:45:50;20.10;99.90
7598;DHT22;3840;59.32098800;18.06423600;2023-06-22T06:48:16;20.20;99.90
7598;DHT22;3840;59.32098800;18.06423600;2023-06-22T06:50:43;20.20;99.90
7598;DHT22;3840;59.32098800;18.06423600;2023-06-22T06:53:10;20.30;99.90
7598;DHT22;3840;59.32098800;18.06423600;2023-06-22T06:55:36;20.40;99.90
7598;DHT22;3840;59.32098800;18.06423600;2023-06-22T06:58:03;20.60;99.90
7598;DHT22;3840;59.32098800;18.06423600;2023-06-22T07:00:34;20.80;99.90
7598;DHT22;3840;59.32098800;18.06423600;2023-06-22T07:03:02;21.20;99.90
7598;DHT22;3840;59.32098800;18.06423600;2023-06-22T07:05:28;21.10;99.90
7598;DHT22;3840;59.32098800;18.06423600;2023-06-22T07:07:53;21.30;99.90
7598;DHT22;3840;59.32098800;18.06423600;2023-06-22T07:10:19;21.60;99.90
7598;DHT22;3840;59.32098800;18.06423600;2023-06-22T07:12:45;21.40;99.90
7598;DHT22;3840;59.32098800;18.06423600;2023-06-22T07:15:11;21.40;99.90
7598;DHT22;3840;59.32098800;18.06423600;2023-06-22T07:17:38;21.60;99.90
7598;DHT22;3840;59.32098800;18.06423600;2023-06-22T07:20:07;21.60;99.90
7598;DHT22;3840;59.32098800;18.06423600;2023-06-22T07:22:41;21.60;99.90
7598;DHT22;3840;59.32098800;18.06423600;2023-06-22T07:25:08;21.40;99.90
7598;DHT22;3840;59.32098800;18.06423600;2023-06-22T07:27:43;21.20;99.90
7598;DHT22;3840;59.32098800;18.06423600;2023-06-22T07:30:11;21.10;99.90
7598;DHT22;3840;59.32098800;18.06423600;2023-06-22T07:32:37;21.30;99.90
7598;DHT22;3840;59.32098800;18.06423600;2023-06-22T07:35:03;20.90;99.90
7598;DHT22;3840;59.32098800;18.06423600;2023-06-22T07:37:30;20.80;99.90
7598;DHT22;3840;59.32098800;18.06423600;2023-06-22T07:39:56;20.90;99.90
7598;DHT22;3840;59.32098800;18.06423600;2023-06-22T07:42:26;20.80;99.90
7598;DHT22;3840;59.32098800;18.06423600;2023-06-22T07:44:51;20.60;99.90
7598;DHT22;3840;59.32098800;18.06423600;2023-06-22T07:47:17;20.60;99.90
7598;DHT22;3840;59.32098800;18.06423600;2023-06-22T07:49:45;20.60;99.90
7598;DHT22;3840;59.32098800;18.06423600;2023-06-22T07:52:11;20.30;99.90
7598;DHT22;3840;59.32098800;18.06423600;2023-06-22T07:54:38;20.20;99.90
7598;DHT22;3840;59.32098800;18.06423600;2023-06-22T07:57:04;20.10;99.90
7598;DHT22;3840;59.32098800;18.06423600;2023-06-22T07:59:30;20.20;99.90
7598;DHT22;3840;59.32098800;18.06423600;2023-06-22T08:01:55;20.40;99.90
7598;DHT22;3840;59.32098800;18.06423600;2023-06-22T08:04:21;20.80;99.90
7598;DHT22;3840;59.32098800;18.06423600;2023-06-22T08:06:47;21.10;99.90
7598;DHT22;3840;59.32098800;18.06423600;2023-06-22T08:09:12;21.10;99.90
7598;DHT22;3840;59.32098800;18.06423600;2023-06-22T08:11:38;21.20;99.90
7598;DHT22;3840;59.32098800;18.06423600;2023-06-22T08:14:04;21.40;99.90
7598;DHT22;3840;59.32098800;18.06423600;2023-06-22T08:16:30;21.30;99.90
7598;DHT22;3840;59.32098800;18.06423600;2023-06-22T08:18:55;21.40;99.90
7598;DHT22;3840;59.32098800;18.06423600;2023-06-22T08:21:21;21.40;99.90
7598;DHT22;3840;59.32098800;18.06423600;2023-06-22T08:23:48;21.40;99.90
7598;DHT22;3840;59.32098800;18.06423600;2023-06-22T08:26:14;21.60;99.90
7598;DHT22;3840;59.32098800;18.06423600;2023-06-22T08:28:40;21.80;99.90
7598;DHT22;3840;59.32098800;18.06423600;2023-06-22T08:31:06;22.00;99.90
7598;DHT22;3840;59.32098800;18.06423600;2023-06-22T08:33:32;21.90;99.90
7598;DHT22;3840;59.32098800;18.06423600;2023-06-22T08:35:58;21.80;99.90
7598;DHT22;3840;59.32098800;18.06423600;2023-06-22T08:38:24;21.90;99.90
7598;DHT22;3840;59.32098800;18.06423600;2023-06-22T08:40:50;22.00;99.90
7598;DHT22;3840;59.32098800;18.06423600;2023-06-22T08:43:16;22.00;99.90
7598;DHT22;3840;59.32098800;18.06423600;2023-06-22T08:45:41;21.90;99.90
7598;DHT22;3840;59.32098800;18.06423600;2023-06-22T08:48:07;21.60;99.90
7598;DHT22;3840;59.32098800;18.06423600;2023-06-22T08:50:33;21.80;99.90
7598;DHT22;3840;59.32098800;18.06423600;2023-06-22T08:52:58;21.90;99.90
7598;DHT22;3840;59.32098800;18.06423600;2023-06-22T08:55:24;22.10;99.90
7598;DHT22;3840;59.32098800;18.06423600;2023-06-22T08:57:49;22.00;99.90
7598;DHT22;3840;59.32098800;18.06423600;2023-06-22T09:00:17;22.00;99.90
7598;DHT22;3840;59.32098800;18.06423600;2023-06-22T09:02:46;22.00;99.90
7598;DHT22;3840;59.32098800;18.06423600;2023-06-22T09:05:12;22.20;99.90
7598;DHT22;3840;59.32098800;18.06423600;2023-06-22T09:07:38;22.30;99.90
7598;DHT22;3840;59.32098800;18.06423600;2023-06-22T09:10:06;22.30;99.90
7598;DHT22;3840;59.32098800;18.06423600;2023-06-22T09:12:32;22.40;99.90
7598;DHT22;3840;59.32098800;18.06423600;2023-06-22T09:14:59;22.40;99.90
7598;DHT22;3840;59.32098800;18.06423600;2023-06-22T09:17:28;22.40;99.90
7598;DHT22;3840;59.32098800;18.06423600;2023-06-22T09:19:54;22.50;99.90
7598;DHT22;3840;59.32098800;18.06423600;2023-06-22T09:22:20;22.60;99.90
7598;DHT22;3840;59.32098800;18.06423600;2023-06-22T09:24:47;22.50;99.90
7598;DHT22;3840;59.32098800;18.06423600;2023-06-22T09:27:13;22.50;99.90
7598;DHT22;3840;59.32098800;18.06423600;2023-06-22T09:29:39;22.70;99.90
7598;DHT22;3840;59.32098800;18.06423600;2023-06-22T09:32:05;22.70;99.90
7598;DHT22;3840;59.32098800;18.06423600;2023-06-22T09:34:32;22.70;99.90
7598;DHT22;3840;59.32098800;18.06423600;2023-06-22T09:36:58;22.50;99.90
7598;DHT22;3840;59.32098800;18.06423600;2023-06-22T09:39:26;22.60;99.90
7598;DHT22;3840;59.32098800;18.06423600;2023-06-22T09:41:51;22.60;99.90
7598;DHT22;3840;59.32098800;18.06423600;2023-06-22T09:44:17;22.60;99.90
7598;DHT22;3840;59.32098800;18.06423600;2023-06-22T09:46:43;22.80;99.90
7598;DHT22;3840;59.32098800;18.06423600;2023-06-22T09:49:09;22.80;99.90
7598;DHT22;3840;59.32098800;18.06423600;2023-06-22T09:51:36;22.70;99.90
7598;DHT22;3840;59.32098800;18.06423600;2023-06-22T09:54:02;22.50;99.90
7598;DHT22;3840;59.32098800;18.06423600;2023-06-22T09:56:27;22.60;99.90
7598;DHT22;3840;59.32098800;18.06423600;2023-06-22T09:58:55;22.40;99.90
7598;DHT22;3840;59.32098800;18.06423600;2023-06-22T10:01:21;22.40;99.90
7598;DHT22;3840;59.32098800;18.06423600;2023-06-22T10:03:47;22.50;99.90
7598;DHT22;3840;59.32098800;18.06423600;2023-06-22T10:06:12;22.60;99.90
7598;DHT22;3840;59.32098800;18.06423600;2023-06-22T10:08:41;22.60;99.90
7598;DHT22;3840;59.32098800;18.06423600;2023-06-22T10:11:07;22.30;99.90
7598;DHT22;3840;59.32098800;18.06423600;2023-06-22T10:13:33;22.20;99.90
7598;DHT22;3840;59.32098800;18.06423600;2023-06-22T10:15:59;22.50;99.90
7598;DHT22;3840;59.32098800;18.06423600;2023-06-22T10:18:25;22.70;99.90
7598;DHT22;3840;59.32098800;18.06423600;2023-06-22T10:20:52;22.70;99.90
7598;DHT22;3840;59.32098800;18.06423600;2023-06-22T10:23:19;22.40;99.90
7598;DHT22;3840;59.32098800;18.06423600;2023-06-22T10:25:45;22.20;99.90
7598;DHT22;3840;59.32098800;18.06423600;2023-06-22T10:28:11;22.20;99.90
7598;DHT22;3840;59.32098800;18.06423600;2023-06-22T10:30:38;22.20;99.90
7598;DHT22;3840;59.32098800;18.06423600;2023-06-22T10:33:09;22.50;99.90
7598;DHT22;3840;59.32098800;18.06423600;2023-06-22T10:35:37;22.70;99.90
7598;DHT22;3840;59.32098800;18.06423600;2023-06-22T10:38:04;22.80;99.90
7598;DHT22;3840;59.32098800;18.06423600;2023-06-22T10:40:30;22.90;99.90
7598;DHT22;3840;59.32098800;18.06423600;2023-06-22T10:42:55;23.00;99.90
7598;DHT22;3840;59.32098800;18.06423600;2023-06-22T10:45:21;23.00;99.90
7598;DHT22;3840;59.32098800;18.06423600;2023-06-22T10:47:47;22.90;99.90
7598;DHT22;3840;59.32098800;18.06423600;2023-06-22T10:50:14;22.90;99.90
7598;DHT22;3840;59.32098800;18.06423600;2023-06-22T10:52:40;22.90;99.90
7598;DHT22;3840;59.32098800;18.06423600;2023-06-22T10:55:08;23.00;99.90
7598;DHT22;3840;59.32098800;18.06423600;2023-06-22T10:57:34;23.10;99.90
7598;DHT22;3840;59.32098800;18.06423600;2023-06-22T10:59:59;23.20;99.90
7598;DHT22;3840;59.32098800;18.06423600;2023-06-22T11:02:25;23.20;99.90
7598;DHT22;3840;59.32098800;18.06423600;2023-06-22T11:04:53;23.10;99.90
7598;DHT22;3840;59.32098800;18.06423600;2023-06-22T11:07:19;23.20;99.90
7598;DHT22;3840;59.32098800;18.06423600;2023-06-22T11:09:45;23.30;99.90
7598;DHT22;3840;59.32098800;18.06423600;2023-06-22T11:12:11;23.30;99.90
7598;DHT22;3840;59.32098800;18.06423600;2023-06-22T11:14:38;23.30;99.90
7598;DHT22;3840;59.32098800;18.06423600;2023-06-22T11:17:04;23.30;99.90
7598;DHT22;3840;59.32098800;18.06423600;2023-06-22T11:19:30;23.30;99.90
7598;DHT22;3840;59.32098800;18.06423600;2023-06-22T11:21:56;23.50;99.90
7598;DHT22;3840;59.32098800;18.06423600;2023-06-22T11:24:22;23.20;99.90
7598;DHT22;3840;59.32098800;18.06423600;2023-06-22T11:26:48;23.40;99.90
7598;DHT22;3840;59.32098800;18.06423600;2023-06-22T11:29:14;23.50;99.90
7598;DHT22;3840;59.32098800;18.06423600;2023-06-22T11:31:40;23.60;99.90
7598;DHT22;3840;59.32098800;18.06423600;2023-06-22T11:34:05;23.70;99.90
7598;DHT22;3840;59.32098800;18.06423600;2023-06-22T11:36:32;23.80;99.90
7598;DHT22;3840;59.32098800;18.06423600;2023-06-22T11:38:58;23.80;99.90
7598;DHT22;3840;59.32098800;18.06423600;2023-06-22T11:41:24;23.60;99.90
7598;DHT22;3840;59.32098800;18.06423600;2023-06-22T11:43:50;24.20;99.90
7598;DHT22;3840;59.32098800;18.06423600;2023-06-22T11:46:15;23.70;99.90
7598;DHT22;3840;59.32098800;18.06423600;2023-06-22T11:48:41;23.70;99.90
7598;DHT22;3840;59.32098800;18.06423600;2023-06-22T11:51:07;23.80;99.90
7598;DHT22;3840;59.32098800;18.06423600;2023-06-22T11:53:33;23.80;99.90
7598;DHT22;3840;59.32098800;18.06423600;2023-06-22T11:56:01;23.80;99.90
7598;DHT22;3840;59.32098800;18.06423600;2023-06-22T11:58:28;23.40;99.90
7598;DHT22;3840;59.32098800;18.06423600;2023-06-22T12:00:54;23.40;99.90
7598;DHT22;3840;59.32098800;18.06423600;2023-06-22T12:03:20;23.20;99.90
7598;DHT22;3840;59.32098800;18.06423600;2023-06-22T12:05:50;23.30;99.90
7598;DHT22;3840;59.32098800;18.06423600;2023-06-22T12:08:17;23.50;99.90
7598;DHT22;3840;59.32098800;18.06423600;2023-06-22T12:10:44;23.50;99.90
7598;DHT22;3840;59.32098800;18.06423600;2023-06-22T12:13:09;23.60;99.90
7598;DHT22;3840;59.32098800;18.06423600;2023-06-22T12:15:35;23.70;99.90
7598;DHT22;3840;59.32098800;18.06423600;2023-06-22T12:18:01;23.60;99.90
7598;DHT22;3840;59.32098800;18.06423600;2023-06-22T12:20:28;23.70;99.90
7598;DHT22;3840;59.32098800;18.06423600;2023-06-22T12:22:53;23.90;99.90
7598;DHT22;3840;59.32098800;18.06423600;2023-06-22T12:25:22;24.10;99.90
7598;DHT22;3840;59.32098800;18.06423600;2023-06-22T12:27:48;24.10;99.90
7598;DHT22;3840;59.32098800;18.06423600;2023-06-22T12:30:13;24.00;99.90
7598;DHT22;3840;59.32098800;18.06423600;2023-06-22T12:32:39;23.90;99.90
7598;DHT22;3840;59.32098800;18.06423600;2023-06-22T12:35:05;23.90;99.90
7598;DHT22;3840;59.32098800;18.06423600;2023-06-22T12:37:32;23.90;99.90
7598;DHT22;3840;59.32098800;18.06423600;2023-06-22T12:39:59;23.80;99.90
7598;DHT22;3840;59.32098800;18.06423600;2023-06-22T12:42:24;23.80;99.90
7598;DHT22;3840;59.32098800;18.06423600;2023-06-22T12:44:51;23.90;99.90
7598;DHT22;3840;59.32098800;18.06423600;2023-06-22T12:47:17;23.70;99.90
7598;DHT22;3840;59.32098800;18.06423600;2023-06-22T12:49:43;23.60;99.90
7598;DHT22;3840;59.32098800;18.06423600;2023-06-22T12:52:09;23.80;99.90
7598;DHT22;3840;59.32098800;18.06423600;2023-06-22T12:54:36;23.90;99.90
7598;DHT22;3840;59.32098800;18.06423600;2023-06-22T12:57:02;24.00;99.90
7598;DHT22;3840;59.32098800;18.06423600;2023-06-22T12:59:28;23.90;99.90
7598;DHT22;3840;59.32098800;18.06423600;2023-06-22T13:01:53;24.00;99.90
7598;DHT22;3840;59.32098800;18.06423600;2023-06-22T13:04:20;24.00;99.90
7598;DHT22;3840;59.32098800;18.06423600;2023-06-22T13:06:46;24.20;99.90
7598;DHT22;3840;59.32098800;18.06423600;2023-06-22T13:09:14;24.30;99.90
7598;DHT22;3840;59.32098800;18.06423600;2023-06-22T13:11:40;24.30;99.90
7598;DHT22;3840;59.32098800;18.06423600;2023-06-22T13:14:06;24.40;99.90
7598;DHT22;3840;59.32098800;18.06423600;2023-06-22T13:16:32;24.50;99.90
7598;DHT22;3840;59.32098800;18.06423600;2023-06-22T13:18:57;24.50;99.90
7598;DHT22;3840;59.32098800;18.06423600;2023-06-22T13:21:23;24.40;99.90
7598;DHT22;3840;59.32098800;18.06423600;2023-06-22T13:23:49;24.30;99.90
7598;DHT22;3840;59.32098800;18.06423600;2023-06-22T13:26:17;24.40;99.90
7598;DHT22;3840;59.32098800;18.06423600;2023-06-22T13:28:43;24.40;99.90
7598;DHT22;3840;59.32098800;18.06423600;2023-06-22T13:31:08;24.40;99.90
7598;DHT22;3840;59.32098800;18.06423600;2023-06-22T13:33:35;24.50;99.90
7598;DHT22;3840;59.32098800;18.06423600;2023-06-22T13:36:00;24.50;99.90
7598;DHT22;3840;59.32098800;18.06423600;2023-06-22T13:38:28;24.30;99.90
7598;DHT22;3840;59.32098800;18.06423600;2023-06-22T13:40:54;24.50;99.90
7598;DHT22;3840;59.32098800;18.06423600;2023-06-22T13:43:23;24.60;99.90